createdAt,value
2022-11-16T00:00:11.897Z,94.49
2022-11-16T00:02:42.007Z,94.75
2022-11-16T00:05:11.174Z,93.96
2022-11-16T00:07:39.404Z,94.12
2022-11-16T00:10:09.022Z,94.52
2022-11-16T00:12:37.192Z,94.06
2022-11-16T00:15:07.040Z,94.67
2022-11-16T00:17:35.386Z,95.24
2022-11-16T00:20:05.611Z,95.33
2022-11-16T00:22:34.010Z,95.49
2022-11-16T00:25:02.492Z,95.24
2022-11-16T00:27:31.187Z,95.56
2022-11-16T00:29:59.357Z,95.31
2022-11-16T00:32:27.629Z,95.66
2022-11-16T00:34:56.188Z,94.87
2022-11-16T00:37:25.813Z,94.05
2022-11-16T00:39:54.031Z,95.12
2022-11-16T00:42:22.238Z,94.84
2022-11-16T00:44:50.427Z,94.23
2022-11-16T00:47:18.816Z,94.84
2022-11-16T00:49:46.936Z,94.80
2022-11-16T00:52:15.093Z,94.97
2022-11-16T00:54:44.853Z,94.65
2022-11-16T00:57:13.045Z,94.83
2022-11-16T00:59:41.176Z,94.04
2022-11-16T01:02:09.403Z,95.02
2022-11-16T01:04:37.616Z,93.82
2022-11-16T01:07:06.027Z,94.29
2022-11-16T01:09:34.406Z,94.50
2022-11-16T01:12:12.990Z,93.94
2022-11-16T01:14:44.906Z,94.78
2022-11-16T01:17:13.633Z,93.81
2022-11-16T01:19:42.175Z,94.43
2022-11-16T01:22:10.482Z,94.19
2022-11-16T01:24:38.678Z,94.30
2022-11-16T01:27:08.279Z,94.00
2022-11-16T01:29:36.554Z,94.24
2022-11-16T01:32:04.996Z,93.99
2022-11-16T01:34:33.196Z,94.44
2022-11-16T01:37:01.418Z,93.63
2022-11-16T01:39:29.885Z,93.23
2022-11-16T01:41:58.062Z,93.45
2022-11-16T01:45:00.235Z,93.90
2022-11-16T01:47:28.964Z,93.99
2022-11-16T01:50:00.835Z,94.32
2022-11-16T01:52:32.392Z,93.63
2022-11-16T01:55:01.006Z,94.51
2022-11-16T01:57:35.430Z,93.11
2022-11-16T02:00:08.413Z,93.07
2022-11-16T02:02:36.656Z,92.64
2022-11-16T02:05:06.106Z,93.43
2022-11-16T02:08:02.733Z,93.07
2022-11-16T02:10:43.664Z,92.83
2022-11-16T02:13:31.707Z,93.26
2022-11-16T02:16:07.727Z,91.86
2022-11-16T02:18:39.558Z,91.88
2022-11-16T02:21:22.723Z,92.34
2022-11-16T02:24:20.634Z,92.80
2022-11-16T02:27:45.532Z,93.27
2022-11-16T02:30:15.609Z,93.20
2022-11-16T02:32:48.699Z,93.13
2022-11-16T02:35:20.215Z,91.92
2022-11-16T02:37:52.051Z,91.98
2022-11-16T02:40:22.468Z,92.75
2022-11-16T02:42:54.405Z,91.49
2022-11-16T02:45:26.652Z,92.64
2022-11-16T02:47:59.530Z,91.34
2022-11-16T02:50:28.973Z,92.15
2022-11-16T02:52:57.162Z,92.22
2022-11-16T02:55:25.932Z,91.63
2022-11-16T02:57:57.370Z,91.87
2022-11-16T03:00:29.866Z,91.96
2022-11-16T03:03:08.500Z,92.30
2022-11-16T03:05:40.109Z,92.26
2022-11-16T03:08:14.784Z,92.59
2022-11-16T03:11:03.029Z,92.27
2022-11-16T03:13:33.729Z,91.93
2022-11-16T03:16:08.278Z,91.46
2022-11-16T03:18:36.864Z,91.88
2022-11-16T03:21:15.793Z,91.61
2022-11-16T03:23:44.999Z,92.36
2022-11-16T03:26:16.561Z,91.90
2022-11-16T03:28:51.434Z,92.28
2022-11-16T03:31:23.145Z,91.68
2022-11-16T03:33:53.706Z,91.90
2022-11-16T03:36:26.372Z,91.50
2022-11-16T03:38:55.568Z,91.52
2022-11-16T03:41:25.468Z,91.73
2022-11-16T03:43:54.408Z,91.40
2022-11-16T03:46:24.288Z,91.90
2022-11-16T03:48:57.969Z,92.14
2022-11-16T03:51:26.786Z,91.82
2022-11-16T03:53:55.147Z,91.73
2022-11-16T03:56:23.291Z,91.63
2022-11-16T03:58:51.818Z,91.17
2022-11-16T04:01:20.073Z,91.16
2022-11-16T04:03:49.850Z,92.33
2022-11-16T04:06:35.596Z,91.42
2022-11-16T04:09:23.445Z,91.31
2022-11-16T04:12:09.391Z,92.45
2022-11-16T04:14:55.036Z,91.03
2022-11-16T04:17:42.048Z,91.04
2022-11-16T04:20:30.615Z,92.31
2022-11-16T04:23:20.550Z,92.46
2022-11-16T04:25:50.009Z,90.75
2022-11-16T04:28:18.379Z,90.92
2022-11-16T04:31:06.390Z,91.45
2022-11-16T04:33:52.176Z,90.91
2022-11-16T04:36:39.414Z,89.39
2022-11-16T04:39:07.848Z,90.45
2022-11-16T04:41:53.406Z,90.08
2022-11-16T04:44:25.895Z,89.73
2022-11-16T04:47:08.514Z,89.91
2022-11-16T04:49:36.785Z,90.92
2022-11-16T04:52:06.452Z,90.54
2022-11-16T04:54:34.784Z,90.68
2022-11-16T04:57:02.909Z,91.72
2022-11-16T04:59:31.084Z,90.65
2022-11-16T05:02:11.443Z,90.76
2022-11-16T05:04:40.534Z,91.01
2022-11-16T05:07:12.181Z,90.82
2022-11-16T05:09:43.103Z,92.27
2022-11-16T05:12:12.112Z,91.78
2022-11-16T05:14:40.344Z,91.70
2022-11-16T05:17:08.789Z,90.92
2022-11-16T05:19:54.635Z,90.49
2022-11-16T05:22:24.417Z,90.72
2022-11-16T05:24:52.787Z,90.25
2022-11-16T05:27:23.207Z,90.16
2022-11-16T05:29:51.571Z,90.54
2022-11-16T05:32:20.754Z,90.19
2022-11-16T05:34:49.097Z,89.90
2022-11-16T05:37:18.349Z,89.39
2022-11-16T05:39:48.046Z,90.55
2022-11-16T05:42:16.406Z,90.59
2022-11-16T05:44:44.789Z,89.83
2022-11-16T05:47:13.422Z,89.96
2022-11-16T05:49:41.732Z,90.36
2022-11-16T05:52:09.913Z,88.59
2022-11-16T05:54:38.131Z,89.29
2022-11-16T05:57:07.748Z,88.83
2022-11-16T05:59:36.154Z,89.35
2022-11-16T06:02:04.945Z,87.62
2022-11-16T06:04:34.226Z,87.26
2022-11-16T06:07:02.486Z,87.31
2022-11-16T06:09:30.924Z,87.94
2022-11-16T06:11:59.135Z,88.08
2022-11-16T06:14:28.671Z,87.68
2022-11-16T06:16:56.906Z,87.66
2022-11-16T06:19:31.027Z,86.72
2022-11-16T06:22:00.529Z,87.83
2022-11-16T06:24:28.828Z,88.55
2022-11-16T06:26:57.007Z,87.40
2022-11-16T06:29:25.341Z,86.91
2022-11-16T06:31:54.997Z,86.87
2022-11-16T06:34:25.535Z,86.06
2022-11-16T06:36:53.762Z,89.09
2022-11-16T06:39:23.661Z,86.63
2022-11-16T06:41:51.913Z,86.49
2022-11-16T06:44:20.055Z,88.61
2022-11-16T06:46:48.462Z,85.93
2022-11-16T06:49:18.092Z,86.88
2022-11-16T06:51:46.496Z,86.44
2022-11-16T06:54:14.775Z,84.50
2022-11-16T06:56:42.953Z,85.48
2022-11-16T06:59:11.097Z,85.23
2022-11-16T07:01:39.535Z,86.74
2022-11-16T07:04:11.995Z,85.71
2022-11-16T07:06:42.247Z,86.77
2022-11-16T07:09:11.121Z,86.11
2022-11-16T07:11:39.756Z,83.91
2022-11-16T07:14:08.081Z,79.83
2022-11-16T07:16:36.893Z,80.73
2022-11-16T07:19:05.292Z,82.46
2022-11-16T07:21:33.542Z,77.77
2022-11-16T07:24:03.311Z,77.73
2022-11-16T07:26:31.721Z,82.22
2022-11-16T07:29:00.021Z,81.85
2022-11-16T07:31:28.324Z,82.80
2022-11-16T07:33:58.154Z,82.39
2022-11-16T07:36:26.434Z,82.36
2022-11-16T07:38:54.642Z,82.70
2022-11-16T07:41:24.320Z,82.66
2022-11-16T07:43:53.334Z,83.59
2022-11-16T07:46:46.522Z,82.88
2022-11-16T07:49:16.267Z,84.04
2022-11-16T07:51:45.761Z,84.12
2022-11-16T07:54:14.520Z,84.17
2022-11-16T07:56:44.431Z,82.40
2022-11-16T07:59:12.831Z,81.49
2022-11-16T08:01:41.083Z,81.26
2022-11-16T08:04:09.412Z,78.96
2022-11-16T08:06:37.648Z,73.32
2022-11-16T08:09:05.954Z,67.14
2022-11-16T08:11:34.677Z,69.44
2022-11-16T08:14:04.299Z,73.24
2022-11-16T08:16:33.481Z,75.22
2022-11-16T08:19:02.534Z,74.79
2022-11-16T08:21:30.780Z,74.93
2022-11-16T08:23:59.259Z,72.77
2022-11-16T08:26:27.951Z,73.59
2022-11-16T08:28:57.329Z,79.23
2022-11-16T08:31:28.831Z,76.99
2022-11-16T08:33:57.762Z,75.17
2022-11-16T08:36:26.219Z,71.05
2022-11-16T08:38:54.866Z,67.74
2022-11-16T08:41:23.265Z,70.66
2022-11-16T08:43:53.511Z,69.52
2022-11-16T08:46:22.346Z,68.14
2022-11-16T08:48:56.524Z,68.04
2022-11-16T08:51:25.218Z,68.43
2022-11-16T08:53:56.988Z,67.88
2022-11-16T08:56:26.466Z,65.32
2022-11-16T08:58:58.945Z,62.01
2022-11-16T09:01:29.303Z,63.64
2022-11-16T09:03:59.034Z,66.24
2022-11-16T09:06:28.218Z,66.23
2022-11-16T09:08:56.638Z,65.08
2022-11-16T09:11:26.300Z,65.54
2022-11-16T09:13:55.821Z,67.79
2022-11-16T09:16:24.943Z,69.06
2022-11-16T09:18:53.687Z,69.64
2022-11-16T09:21:25.427Z,70.73
2022-11-16T09:23:54.919Z,73.35
2022-11-16T09:26:25.702Z,72.12
2022-11-16T09:28:58.371Z,72.08
2022-11-16T09:31:27.586Z,71.71
2022-11-16T09:33:58.478Z,69.74
2022-11-16T09:36:29.543Z,67.65
2022-11-16T09:41:57.866Z,64.80
2022-11-16T09:44:39.745Z,65.02
2022-11-16T09:47:15.248Z,66.22
2022-11-16T09:49:46.563Z,68.96
2022-11-16T09:52:22.380Z,70.83
2022-11-16T09:54:51.361Z,69.71
2022-11-16T09:57:23.718Z,71.29
2022-11-16T09:59:55.938Z,69.03
2022-11-16T10:02:27.875Z,71.94
2022-11-16T10:04:59.605Z,71.07
2022-11-16T10:07:33.056Z,71.82
2022-11-16T10:10:01.403Z,72.61
2022-11-16T10:12:37.019Z,72.83
2022-11-16T10:15:17.311Z,72.08
2022-11-16T10:17:55.482Z,71.25
2022-11-16T10:20:54.919Z,71.56
2022-11-16T10:23:34.375Z,72.84
2022-11-16T10:26:10.669Z,72.43
2022-11-16T10:29:17.226Z,71.09
2022-11-16T10:32:02.143Z,70.97
2022-11-16T10:34:37.394Z,70.70
2022-11-16T10:37:08.516Z,69.62
2022-11-16T10:39:41.169Z,67.93
2022-11-16T10:42:13.340Z,69.24
2022-11-16T10:44:44.335Z,71.13
2022-11-16T10:47:18.654Z,70.16
2022-11-16T10:49:52.255Z,69.86
2022-11-16T10:52:20.461Z,69.47
2022-11-16T10:54:50.020Z,70.34
2022-11-16T10:57:18.501Z,70.68
2022-11-16T10:59:48.789Z,72.19
2022-11-16T11:02:33.835Z,70.26
2022-11-16T11:05:08.223Z,68.54
2022-11-16T11:07:40.169Z,69.95
2022-11-16T11:10:25.237Z,69.26
2022-11-16T11:13:04.950Z,71.09
2022-11-16T11:15:33.341Z,71.30
2022-11-16T11:18:19.629Z,72.05
2022-11-16T11:20:50.363Z,69.43
2022-11-16T11:23:20.627Z,72.79
2022-11-16T11:25:54.973Z,70.08
2022-11-16T11:28:26.390Z,70.97
2022-11-16T11:31:00.160Z,71.38
2022-11-16T11:33:32.739Z,71.04
2022-11-16T11:36:06.612Z,70.13
2022-11-16T11:38:36.398Z,71.19
2022-11-16T11:41:06.288Z,70.03
2022-11-16T11:43:35.252Z,69.63
2022-11-16T11:46:11.086Z,70.10
2022-11-16T11:48:47.956Z,70.12
2022-11-16T11:51:20.990Z,69.27
2022-11-16T11:53:54.969Z,69.93
2022-11-16T11:56:25.049Z,70.81
2022-11-16T11:58:53.327Z,70.36
2022-11-16T12:01:47.157Z,69.34
2022-11-16T12:04:53.036Z,70.89
2022-11-16T12:07:33.455Z,70.15
2022-11-16T12:10:07.128Z,71.06
2022-11-16T12:12:46.941Z,73.37
2022-11-16T12:15:56.522Z,74.26
2022-11-16T12:18:36.561Z,72.11
2022-11-16T12:21:09.934Z,71.75
2022-11-16T12:23:41.507Z,71.84
2022-11-16T12:26:15.180Z,71.12
2022-11-16T12:28:57.019Z,70.69
2022-11-16T12:32:00.562Z,70.63
2022-11-16T12:34:38.903Z,70.33
2022-11-16T12:37:15.399Z,73.08
2022-11-16T12:39:45.990Z,75.25
2022-11-16T12:42:36.354Z,75.73
2022-11-16T12:45:28.997Z,77.40
2022-11-16T12:48:15.620Z,77.68
2022-11-16T12:50:48.831Z,77.32
2022-11-16T12:53:31.810Z,79.19
2022-11-16T12:56:07.603Z,79.45
2022-11-16T12:58:55.700Z,79.88
2022-11-16T13:01:32.993Z,80.72
2022-11-16T13:04:06.302Z,80.65
2022-11-16T13:06:36.856Z,81.91
2022-11-16T13:09:09.115Z,80.24
2022-11-16T13:11:39.915Z,81.39
2022-11-16T13:14:11.751Z,80.73
2022-11-16T13:16:41.970Z,80.80
2022-11-16T13:19:13.878Z,81.78
2022-11-16T13:21:49.206Z,81.07
2022-11-16T13:24:28.681Z,81.83
2022-11-16T13:27:10.357Z,82.22
2022-11-16T13:29:41.731Z,82.04
2022-11-16T13:32:16.240Z,84.24
2022-11-16T13:34:44.856Z,83.89
2022-11-16T13:37:53.117Z,82.54
2022-11-16T13:40:25.082Z,82.25
2022-11-16T13:43:03.002Z,83.82
2022-11-16T13:45:39.412Z,84.40
2022-11-16T13:48:19.710Z,83.61
2022-11-16T13:50:50.549Z,84.41
2022-11-16T13:54:37.727Z,85.72
2022-11-16T13:56:16.079Z,85.67
2022-11-16T13:58:47.438Z,85.13
2022-11-16T14:01:16.150Z,85.88
2022-11-16T14:03:46.572Z,87.28
2022-11-16T14:07:00.466Z,86.47
2022-11-16T14:09:46.085Z,86.20
2022-11-16T14:12:57.420Z,85.67
2022-11-16T14:15:28.016Z,87.62
2022-11-16T14:17:58.832Z,86.14
2022-11-16T14:21:01.377Z,84.63
2022-11-16T14:23:49.647Z,86.38
2022-11-16T14:26:22.709Z,85.08
2022-11-16T14:29:15.589Z,85.42
2022-11-16T14:31:52.478Z,87.05
2022-11-16T14:34:23.078Z,86.20
2022-11-16T14:40:49.348Z,85.55
2022-11-16T14:43:23.149Z,85.36
2022-11-16T14:45:55.108Z,85.70
2022-11-16T14:48:25.969Z,85.64
2022-11-16T14:51:06.564Z,85.65
2022-11-16T14:53:36.600Z,86.37
2022-11-16T14:56:11.888Z,85.84
2022-11-16T14:59:05.215Z,86.43
2022-11-16T15:01:35.850Z,85.25
2022-11-16T15:04:05.469Z,84.95
2022-11-16T15:06:43.062Z,86.88
2022-11-16T15:09:16.059Z,87.48
2022-11-16T15:12:06.335Z,87.37
2022-11-16T15:14:38.746Z,86.74
2022-11-16T15:17:08.974Z,87.04
2022-11-16T15:19:37.282Z,88.03
2022-11-16T15:22:06.304Z,87.90
2022-11-16T15:24:35.781Z,88.10
2022-11-16T15:27:28.018Z,87.39
2022-11-16T15:29:56.584Z,87.86
2022-11-16T15:32:24.782Z,88.19
2022-11-16T15:34:54.800Z,88.94
2022-11-16T15:37:29.687Z,87.23
2022-11-16T15:40:00.118Z,88.50
2022-11-16T15:42:30.241Z,87.33
2022-11-16T15:45:00.714Z,88.51
2022-11-16T15:47:29.145Z,87.90
2022-11-16T15:49:57.463Z,86.98
2022-11-16T15:52:50.216Z,87.02
2022-11-16T15:55:25.501Z,88.12
2022-11-16T15:58:07.382Z,86.63
2022-11-16T16:00:37.168Z,87.30
2022-11-16T16:03:18.577Z,86.98
2022-11-16T16:05:46.903Z,86.58
2022-11-16T16:08:32.741Z,86.96
2022-11-16T16:11:11.182Z,87.61
2022-11-16T16:13:42.734Z,86.18
2022-11-16T16:16:31.926Z,88.08
2022-11-16T16:19:05.115Z,86.73
2022-11-16T16:21:58.816Z,87.38
2022-11-16T16:25:00.236Z,86.41
2022-11-16T16:27:41.952Z,86.97
2022-11-16T16:30:16.416Z,86.10
2022-11-16T16:32:56.928Z,87.44
2022-11-16T16:35:26.837Z,88.17
2022-11-16T16:37:58.784Z,88.37
2022-11-16T16:40:27.448Z,85.75
2022-11-16T16:42:56.996Z,85.95
2022-11-16T16:45:43.706Z,86.18
2022-11-16T16:48:12.937Z,87.41
2022-11-16T16:50:41.221Z,87.24
2022-11-16T16:53:12.673Z,87.64
2022-11-16T16:55:41.007Z,86.58
2022-11-16T16:58:12.050Z,87.01
2022-11-16T17:00:41.651Z,86.90
2022-11-16T17:03:14.838Z,87.64
2022-11-16T17:05:43.047Z,87.82
2022-11-16T17:08:46.432Z,88.67
2022-11-16T17:11:16.061Z,88.99
2022-11-16T17:13:44.341Z,87.76
2022-11-16T17:16:19.142Z,87.54
2022-11-16T17:18:48.064Z,85.65
2022-11-16T17:21:16.393Z,85.02
2022-11-16T17:23:45.804Z,86.70
2022-11-16T17:26:16.042Z,87.43
2022-11-16T17:28:46.682Z,87.83
2022-11-16T17:31:17.548Z,87.47
2022-11-16T17:33:46.887Z,87.80
2022-11-16T17:36:15.339Z,87.92
2022-11-16T17:38:43.910Z,88.25
2022-11-16T17:41:13.965Z,87.63
2022-11-16T17:43:43.252Z,86.43
2022-11-16T17:46:13.160Z,86.93
2022-11-16T17:48:54.112Z,87.40
2022-11-16T17:51:26.608Z,86.81
2022-11-16T17:53:55.741Z,87.07
2022-11-16T17:56:28.398Z,87.30
2022-11-16T17:59:10.785Z,87.47
2022-11-16T18:01:39.527Z,86.61
2022-11-16T18:04:13.511Z,86.95
2022-11-16T18:06:41.778Z,87.84
2022-11-16T18:09:10.050Z,87.97
2022-11-16T18:11:39.652Z,87.38
2022-11-16T18:14:07.937Z,87.19
2022-11-16T18:16:59.490Z,86.32
2022-11-16T18:19:29.368Z,86.08
2022-11-16T18:21:57.544Z,87.24
2022-11-16T18:24:26.801Z,86.58
2022-11-16T18:26:57.190Z,88.95
2022-11-16T18:29:25.435Z,87.87
2022-11-16T18:31:53.925Z,88.86
2022-11-16T18:34:22.468Z,88.64
2022-11-16T18:36:52.164Z,87.57
2022-11-16T18:39:20.429Z,88.21
2022-11-16T18:41:54.827Z,89.39
2022-11-16T18:44:24.046Z,88.28
2022-11-16T18:46:52.202Z,88.90
2022-11-16T18:49:20.683Z,88.65
2022-11-16T18:51:49.087Z,88.34
2022-11-16T18:54:18.817Z,87.25
2022-11-16T18:56:47.924Z,87.83
2022-11-16T18:59:16.374Z,87.34
2022-11-16T19:01:46.823Z,87.35
2022-11-16T19:04:20.186Z,85.93
2022-11-16T19:06:48.118Z,85.66
2022-11-16T19:09:16.359Z,85.15
2022-11-16T19:11:48.318Z,86.30
2022-11-16T19:14:16.494Z,86.61
2022-11-16T19:16:52.638Z,86.47
2022-11-16T19:19:27.951Z,87.06
2022-11-16T19:21:59.246Z,85.57
2022-11-16T19:24:38.563Z,86.42
2022-11-16T19:27:08.227Z,87.58
2022-11-16T19:29:36.377Z,86.06
2022-11-16T19:32:10.764Z,87.01
2022-11-16T19:34:39.156Z,87.27
2022-11-16T19:37:07.497Z,87.38
2022-11-16T19:39:36.112Z,87.41
2022-11-16T19:42:08.949Z,86.15
2022-11-16T19:44:43.049Z,86.46
2022-11-16T19:47:11.323Z,86.85
2022-11-16T19:49:39.876Z,86.70
2022-11-16T19:52:08.250Z,87.42
2022-11-16T19:54:36.675Z,86.91
2022-11-16T19:57:17.036Z,87.68
2022-11-16T19:59:45.679Z,86.84
2022-11-16T20:02:14.115Z,86.83
2022-11-16T20:04:44.008Z,85.44
2022-11-16T20:07:13.597Z,85.59
2022-11-16T20:09:41.905Z,85.80
2022-11-16T20:12:10.081Z,85.80
2022-11-16T20:14:39.889Z,85.95
2022-11-16T20:17:09.985Z,87.22
2022-11-16T20:19:39.826Z,87.04
2022-11-16T20:22:09.077Z,86.18
2022-11-16T20:24:37.488Z,86.81
2022-11-16T20:27:05.989Z,86.67
2022-11-16T20:29:37.743Z,85.99
2022-11-16T20:32:07.472Z,86.03
2022-11-16T20:34:35.706Z,85.85
2022-11-16T20:37:05.047Z,85.52
2022-11-16T20:39:33.316Z,85.55
2022-11-16T20:42:01.594Z,85.93
2022-11-16T20:44:38.344Z,85.53
2022-11-16T20:47:19.805Z,86.28
2022-11-16T20:49:47.962Z,85.85
2022-11-16T20:52:17.560Z,86.24
2022-11-16T20:54:45.858Z,87.43
2022-11-16T20:57:16.881Z,87.53
2022-11-16T20:59:45.040Z,87.90
2022-11-16T21:02:14.709Z,86.58
2022-11-16T21:04:42.865Z,86.21
2022-11-16T21:10:22.528Z,86.90
2022-11-16T21:13:08.736Z,87.15
2022-11-16T21:15:39.667Z,86.55
2022-11-16T21:18:09.396Z,86.98
2022-11-16T21:20:40.040Z,86.12
2022-11-16T21:23:08.594Z,87.80
2022-11-16T21:25:36.921Z,87.80
2022-11-16T21:28:05.332Z,87.25
2022-11-16T21:30:33.494Z,86.43
2022-11-16T21:33:24.819Z,87.38
2022-11-16T21:35:56.872Z,86.05
2022-11-16T21:38:29.734Z,85.35
2022-11-16T21:40:57.911Z,85.36
2022-11-16T21:43:26.117Z,85.39
2022-11-16T21:46:22.018Z,86.68
2022-11-16T21:49:07.674Z,86.85
2022-11-16T21:51:37.411Z,86.23
2022-11-16T21:54:08.078Z,86.79
2022-11-16T21:56:36.307Z,86.42
2022-11-16T21:59:04.590Z,86.83
2022-11-16T22:02:03.527Z,87.34
2022-11-16T22:04:49.086Z,87.38
2022-11-16T22:07:36.255Z,87.65
2022-11-16T22:10:06.805Z,87.75
2022-11-16T22:12:35.226Z,88.04
2022-11-16T22:15:27.568Z,87.39
2022-11-16T22:17:55.691Z,87.60
2022-11-16T22:20:27.536Z,87.68
2022-11-16T22:22:57.240Z,87.17
2022-11-16T22:25:56.670Z,87.40
2022-11-16T22:28:25.036Z,87.26
2022-11-16T22:31:00.614Z,86.51
2022-11-16T22:33:33.518Z,87.51
2022-11-16T22:36:25.871Z,86.90
2022-11-16T22:38:57.251Z,87.26
2022-11-16T22:41:25.405Z,88.22
2022-11-16T22:43:53.637Z,88.22
2022-11-16T22:46:24.695Z,88.01
2022-11-16T22:48:52.890Z,87.94
2022-11-16T22:51:23.174Z,88.61
2022-11-16T22:54:04.153Z,88.91
2022-11-16T22:56:40.090Z,88.76
2022-11-16T22:59:09.174Z,88.44
2022-11-16T23:01:37.601Z,87.80
2022-11-16T23:04:06.236Z,86.90
2022-11-16T23:06:34.624Z,88.05
2022-11-16T23:09:04.181Z,87.10
2022-11-16T23:11:50.130Z,87.84
2022-11-16T23:14:36.174Z,88.68
2022-11-16T23:17:06.816Z,89.47
2022-11-16T23:19:52.842Z,89.65
2022-11-16T23:22:42.159Z,88.16
2022-11-16T23:25:44.051Z,88.59
2022-11-16T23:28:15.413Z,88.50
2022-11-16T23:30:43.757Z,87.42
2022-11-16T23:33:12.145Z,88.04
2022-11-16T23:35:40.458Z,88.10
2022-11-16T23:38:09.348Z,89.44
2022-11-16T23:40:43.441Z,88.47
2022-11-16T23:43:29.220Z,88.00
2022-11-16T23:45:57.537Z,86.71
2022-11-16T23:48:28.474Z,87.31
2022-11-16T23:50:56.607Z,87.78
2022-11-16T23:53:24.910Z,88.42
2022-11-16T23:55:54.613Z,88.69
2022-11-16T23:58:23.534Z,89.44
